createdAt,value
2022-07-30T00:04:48.891Z,4.10
2022-07-30T00:07:15.691Z,3.63
2022-07-30T00:09:42.958Z,4.00
2022-07-30T00:12:10.017Z,4.90
2022-07-30T00:14:37.320Z,4.75
2022-07-30T00:17:05.183Z,4.63
2022-07-30T00:19:32.826Z,5.35
2022-07-30T00:22:00.114Z,4.45
2022-07-30T00:24:26.882Z,4.72
2022-07-30T00:26:53.599Z,5.47
2022-07-30T00:29:20.446Z,6.47
2022-07-30T00:31:47.288Z,5.97
2022-07-30T00:34:14.198Z,7.53
2022-07-30T00:36:41.206Z,5.15
2022-07-30T00:39:08.486Z,4.32
2022-07-30T00:41:37.955Z,5.35
2022-07-30T00:44:04.945Z,4.38
2022-07-30T00:46:31.727Z,4.55
2022-07-30T00:48:58.486Z,4.20
2022-07-30T00:51:25.292Z,6.45
2022-07-30T00:53:52.318Z,5.45
2022-07-30T00:56:19.065Z,4.13
2022-07-30T00:58:45.775Z,4.07
2022-07-30T01:01:12.821Z,4.30
2022-07-30T01:03:39.978Z,3.70
2022-07-30T01:06:07.005Z,4.50
2022-07-30T01:08:43.159Z,4.13
2022-07-30T01:11:11.390Z,8.05
2022-07-30T01:13:43.457Z,5.45
2022-07-30T01:16:10.535Z,8.90
2022-07-30T01:18:56.655Z,7.60
2022-07-30T01:21:32.458Z,5.03
2022-07-30T01:24:26.994Z,5.78
2022-07-30T01:26:55.175Z,6.15
2022-07-30T01:29:23.973Z,5.53
2022-07-30T01:31:56.284Z,4.90
2022-07-30T01:34:23.778Z,4.60
2022-07-30T01:36:50.883Z,4.15
2022-07-30T01:39:19.598Z,6.40
2022-07-30T01:41:49.229Z,5.28
2022-07-30T01:44:17.289Z,5.30
2022-07-30T01:46:52.306Z,3.90
2022-07-30T01:49:22.861Z,4.32
2022-07-30T01:51:50.990Z,4.95
2022-07-30T01:54:18.994Z,5.80
2022-07-30T01:56:50.065Z,4.65
2022-07-30T01:59:20.364Z,4.80
2022-07-30T02:01:48.445Z,5.30
2022-07-30T02:04:16.572Z,4.75
2022-07-30T02:07:01.588Z,4.30
2022-07-30T02:09:44.394Z,4.85
2022-07-30T02:12:28.653Z,5.43
2022-07-30T02:15:31.223Z,6.28
2022-07-30T02:18:10.384Z,6.50
2022-07-30T02:20:38.448Z,5.70
2022-07-30T02:23:10.341Z,5.18
2022-07-30T02:25:41.295Z,4.63
2022-07-30T02:28:11.613Z,5.38
2022-07-30T02:30:44.234Z,4.38
2022-07-30T02:33:13.933Z,5.47
2022-07-30T02:35:41.494Z,5.65
2022-07-30T02:38:10.955Z,5.35
2022-07-30T02:40:41.816Z,5.40
2022-07-30T02:43:09.106Z,5.70
2022-07-30T02:45:36.978Z,6.15
2022-07-30T02:48:07.537Z,4.78
2022-07-30T02:50:35.162Z,7.32
2022-07-30T02:53:05.138Z,5.90
2022-07-30T02:58:05.848Z,6.85
2022-07-30T03:00:35.505Z,6.07
2022-07-30T03:03:05.647Z,8.77
2022-07-30T03:05:33.070Z,5.78
2022-07-30T03:08:01.190Z,6.43
2022-07-30T03:10:28.979Z,7.53
2022-07-30T03:12:58.264Z,8.43
2022-07-30T03:15:26.958Z,5.88
2022-07-30T03:17:55.576Z,5.90
2022-07-30T03:20:28.468Z,6.20
2022-07-30T03:22:58.648Z,7.60
2022-07-30T03:25:29.645Z,6.53
2022-07-30T03:27:59.307Z,6.93
2022-07-30T03:30:28.037Z,6.07
2022-07-30T03:32:56.092Z,7.03
2022-07-30T03:35:24.999Z,6.03
2022-07-30T03:40:23.324Z,6.30
2022-07-30T03:42:50.723Z,5.80
2022-07-30T03:45:23.400Z,6.30
2022-07-30T03:47:52.755Z,6.22
2022-07-30T03:50:19.855Z,6.60
2022-07-30T03:52:47.547Z,9.48
2022-07-30T03:55:17.265Z,6.13
2022-07-30T03:57:50.977Z,7.07
2022-07-30T04:00:21.729Z,6.43
2022-07-30T04:02:51.999Z,5.90
2022-07-30T04:05:41.240Z,5.40
2022-07-30T04:08:09.326Z,7.38
2022-07-30T04:10:37.916Z,6.50
2022-07-30T04:13:22.941Z,6.85
2022-07-30T04:16:05.840Z,7.03
2022-07-30T04:18:54.650Z,6.47
2022-07-30T04:21:24.620Z,6.55
2022-07-30T04:24:03.935Z,6.38
2022-07-30T04:26:34.223Z,6.07
2022-07-30T04:29:02.405Z,7.20
2022-07-30T04:31:29.808Z,7.60
2022-07-30T04:34:05.057Z,5.95
2022-07-30T04:36:39.475Z,6.57
2022-07-30T04:39:06.254Z,6.63
2022-07-30T04:41:48.665Z,7.47
2022-07-30T04:44:36.641Z,6.55
2022-07-30T04:47:23.120Z,6.90
2022-07-30T04:50:11.556Z,7.47
2022-07-30T04:52:39.163Z,7.03
2022-07-30T04:55:09.996Z,8.02
2022-07-30T04:57:40.215Z,7.03
2022-07-30T05:00:07.851Z,7.57
2022-07-30T05:02:39.950Z,7.68
2022-07-30T05:05:08.983Z,7.15
2022-07-30T05:07:38.038Z,7.88
2022-07-30T05:10:07.333Z,9.07
2022-07-30T05:12:39.546Z,8.00
2022-07-30T05:15:07.931Z,7.25
2022-07-30T05:17:35.390Z,9.60
2022-07-30T05:20:06.265Z,8.52
2022-07-30T05:22:51.175Z,10.40
2022-07-30T05:25:19.887Z,8.27
2022-07-30T05:27:47.077Z,8.10
2022-07-30T05:30:14.176Z,9.35
2022-07-30T05:32:46.506Z,9.65
2022-07-30T05:35:14.140Z,8.00
2022-07-30T05:37:41.031Z,7.03
2022-07-30T05:40:09.439Z,9.80
2022-07-30T05:42:56.136Z,9.00
2022-07-30T05:45:23.189Z,9.13
2022-07-30T05:47:50.713Z,8.45
2022-07-30T05:50:17.814Z,10.07
2022-07-30T05:52:44.714Z,7.90
2022-07-30T05:55:31.507Z,7.70
2022-07-30T05:58:22.694Z,7.00
2022-07-30T06:00:50.505Z,6.93
2022-07-30T06:03:18.920Z,8.85
2022-07-30T06:06:24.027Z,7.57
2022-07-30T06:08:52.204Z,8.68
2022-07-30T06:11:19.037Z,9.65
2022-07-30T06:13:45.886Z,7.18
2022-07-30T06:16:13.026Z,7.07
2022-07-30T06:18:40.005Z,7.72
2022-07-30T06:21:14.724Z,6.00
2022-07-30T06:23:57.043Z,7.97
2022-07-30T06:26:34.971Z,8.88
2022-07-30T06:29:02.630Z,6.00
2022-07-30T06:31:30.966Z,6.80
2022-07-30T06:33:57.934Z,6.75
2022-07-30T06:36:28.098Z,6.72
2022-07-30T06:39:00.282Z,7.63
2022-07-30T06:41:44.631Z,6.30
2022-07-30T06:44:14.386Z,6.80
2022-07-30T06:47:07.908Z,7.80
2022-07-30T06:49:37.329Z,7.85
2022-07-30T06:52:06.387Z,5.75
2022-07-30T06:54:35.935Z,7.82
2022-07-30T06:57:09.657Z,5.97
2022-07-30T06:59:56.415Z,6.32
2022-07-30T07:02:40.163Z,6.65
2022-07-30T07:05:12.823Z,5.78
2022-07-30T07:07:56.267Z,7.28
2022-07-30T07:10:27.012Z,6.57
2022-07-30T07:13:23.067Z,10.52
2022-07-30T07:15:50.378Z,9.30
2022-07-30T07:18:20.575Z,7.60
2022-07-30T07:20:52.894Z,6.93
2022-07-30T07:23:20.067Z,6.43
2022-07-30T07:25:50.758Z,7.55
2022-07-30T07:28:18.207Z,6.82
2022-07-30T07:30:45.375Z,6.38
2022-07-30T07:33:15.710Z,5.53
2022-07-30T07:35:49.601Z,6.10
2022-07-30T07:38:21.757Z,7.03
2022-07-30T07:40:50.502Z,5.93
2022-07-30T07:43:17.909Z,6.32
2022-07-30T07:45:45.754Z,6.82
2022-07-30T07:48:12.953Z,6.43
2022-07-30T07:51:00.375Z,8.00
2022-07-30T07:53:30.537Z,5.97
2022-07-30T07:55:58.671Z,6.25
2022-07-30T07:58:27.139Z,7.13
2022-07-30T08:00:58.460Z,8.52
2022-07-30T08:03:45.292Z,7.55
2022-07-30T08:06:32.096Z,8.73
2022-07-30T08:09:44.019Z,8.23
2022-07-30T08:12:40.787Z,7.82
2022-07-30T08:15:36.513Z,6.75
2022-07-30T08:18:15.547Z,6.72
2022-07-30T08:20:50.339Z,7.07
2022-07-30T08:23:22.235Z,7.78
2022-07-30T08:25:49.988Z,9.07
2022-07-30T08:28:35.507Z,7.28
2022-07-30T08:31:04.890Z,7.05
2022-07-30T08:33:31.765Z,7.18
2022-07-30T08:36:04.159Z,5.88
2022-07-30T08:38:36.249Z,6.70
2022-07-30T08:41:03.374Z,7.10
2022-07-30T08:43:32.239Z,8.13
2022-07-30T08:46:01.552Z,7.20
2022-07-30T08:48:43.073Z,5.97
2022-07-30T08:51:13.050Z,5.90
2022-07-30T08:53:44.223Z,9.60
2022-07-30T08:56:12.283Z,6.72
2022-07-30T08:58:39.363Z,8.30
2022-07-30T09:01:06.915Z,7.45
2022-07-30T09:03:34.318Z,5.10
2022-07-30T09:06:03.129Z,6.78
2022-07-30T09:08:31.076Z,6.07
2022-07-30T09:10:58.791Z,7.13
2022-07-30T09:13:29.105Z,9.93
2022-07-30T09:15:58.936Z,7.13
2022-07-30T09:18:34.601Z,5.95
2022-07-30T09:21:25.881Z,5.53
2022-07-30T09:24:18.880Z,6.05
2022-07-30T09:27:05.406Z,7.38
2022-07-30T09:30:01.390Z,4.90
2022-07-30T09:32:56.033Z,7.20
2022-07-30T09:35:25.821Z,5.32
2022-07-30T09:38:13.130Z,7.93
2022-07-30T09:40:57.251Z,6.32
2022-07-30T09:43:48.605Z,5.20
2022-07-30T09:46:47.534Z,4.88
2022-07-30T09:49:22.047Z,6.55
2022-07-30T09:51:55.755Z,6.18
2022-07-30T09:54:51.368Z,6.18
2022-07-30T09:57:26.510Z,4.80
2022-07-30T09:59:57.868Z,5.40
2022-07-30T10:02:32.229Z,4.65
2022-07-30T10:05:24.433Z,4.75
2022-07-30T10:07:56.260Z,5.47
2022-07-30T10:10:28.961Z,7.05
2022-07-30T10:13:04.302Z,5.63
2022-07-30T10:15:35.403Z,4.57
2022-07-30T10:18:06.033Z,5.45
2022-07-30T10:20:52.055Z,6.40
2022-07-30T10:23:50.501Z,5.18
2022-07-30T10:26:47.800Z,4.15
2022-07-30T10:29:34.266Z,4.05
2022-07-30T10:32:02.411Z,7.65
2022-07-30T10:34:34.241Z,4.40
2022-07-30T10:37:06.753Z,5.63
2022-07-30T10:39:43.538Z,4.53
2022-07-30T10:42:43.026Z,5.32
2022-07-30T10:45:23.297Z,4.53
2022-07-30T10:47:53.518Z,4.77
2022-07-30T10:50:27.191Z,5.80
2022-07-30T10:52:55.737Z,5.13
2022-07-30T10:55:37.024Z,6.15
2022-07-30T10:58:14.331Z,5.50
2022-07-30T11:00:51.707Z,5.93
2022-07-30T11:03:40.090Z,8.95
2022-07-30T11:06:16.880Z,6.05
2022-07-30T11:08:51.687Z,8.55
2022-07-30T11:12:00.081Z,4.60
2022-07-30T11:14:08.740Z,7.03
2022-07-30T11:16:55.581Z,8.30
2022-07-30T11:19:54.875Z,5.72
2022-07-30T11:22:29.794Z,6.38
2022-07-30T11:24:56.993Z,6.85
2022-07-30T11:27:41.329Z,4.75
2022-07-30T11:30:18.306Z,4.78
2022-07-30T11:32:50.173Z,4.25
2022-07-30T11:35:25.359Z,3.90
2022-07-30T11:37:58.845Z,5.53
2022-07-30T11:40:33.419Z,4.10
2022-07-30T11:43:18.585Z,3.70
2022-07-30T11:46:06.166Z,6.38
2022-07-30T11:48:34.829Z,3.85
2022-07-30T11:51:03.941Z,6.40
2022-07-30T11:53:31.314Z,6.43
2022-07-30T11:56:00.964Z,5.18
2022-07-30T11:58:33.825Z,5.35
2022-07-30T12:01:09.275Z,5.13
2022-07-30T12:03:40.735Z,5.00
2022-07-30T12:06:10.675Z,6.82
2022-07-30T12:08:44.982Z,4.65
2022-07-30T12:11:12.622Z,4.75
2022-07-30T12:13:44.810Z,4.40
2022-07-30T12:16:16.595Z,5.25
2022-07-30T12:18:44.474Z,4.22
2022-07-30T12:21:12.612Z,5.10
2022-07-30T12:23:44.187Z,4.13
2022-07-30T12:26:22.329Z,8.32
2022-07-30T12:28:49.615Z,3.80
2022-07-30T12:31:17.222Z,5.78
2022-07-30T12:33:44.450Z,5.03
2022-07-30T12:36:28.074Z,5.75
2022-07-30T12:38:56.616Z,4.35
2022-07-30T12:41:24.389Z,4.40
2022-07-30T12:43:53.945Z,3.95
2022-07-30T12:46:26.644Z,3.67
2022-07-30T12:48:57.862Z,7.57
2022-07-30T12:51:26.345Z,4.63
2022-07-30T12:53:57.318Z,5.47
2022-07-30T12:58:58.347Z,3.50
2022-07-30T13:01:42.861Z,6.82
2022-07-30T13:04:10.448Z,5.72
2022-07-30T13:06:38.119Z,3.70
2022-07-30T13:09:05.740Z,3.47
2022-07-30T13:11:49.233Z,4.93
2022-07-30T13:14:17.464Z,6.63
2022-07-30T13:16:44.663Z,4.15
2022-07-30T13:19:12.608Z,4.60
2022-07-30T13:21:49.393Z,5.60
2022-07-30T13:24:17.881Z,4.18
2022-07-30T13:26:45.427Z,4.00
2022-07-30T13:29:13.591Z,4.97
2022-07-30T13:31:42.868Z,2.80
2022-07-30T13:34:11.324Z,4.00
2022-07-30T13:36:38.218Z,2.88
2022-07-30T13:39:05.080Z,3.40
2022-07-30T13:41:33.175Z,5.28
2022-07-30T13:43:59.992Z,4.32
2022-07-30T13:46:26.984Z,14.73
2022-07-30T13:48:54.003Z,3.47
2022-07-30T13:51:20.824Z,3.13
2022-07-30T13:53:47.656Z,6.50
2022-07-30T13:56:14.756Z,3.60
2022-07-30T13:58:42.738Z,3.83
2022-07-30T14:01:17.665Z,5.47
2022-07-30T14:03:49.438Z,4.32
2022-07-30T14:06:17.761Z,7.80
2022-07-30T14:08:44.506Z,2.60
2022-07-30T14:11:14.302Z,2.42
2022-07-30T14:13:41.604Z,4.47
2022-07-30T14:16:28.497Z,4.82
2022-07-30T14:18:57.367Z,4.80
2022-07-30T14:21:24.868Z,5.07
2022-07-30T14:23:51.626Z,4.03
2022-07-30T14:26:18.409Z,3.72
2022-07-30T14:28:45.550Z,3.42
2022-07-30T14:31:12.320Z,3.08
2022-07-30T14:33:39.431Z,2.65
2022-07-30T14:36:06.364Z,3.92
2022-07-30T14:38:33.165Z,5.35
2022-07-30T14:40:59.930Z,4.55
2022-07-30T14:43:27.873Z,4.75
2022-07-30T14:45:54.837Z,4.32
2022-07-30T14:48:21.696Z,4.85
2022-07-30T14:51:12.042Z,4.47
2022-07-30T14:53:35.537Z,3.08
2022-07-30T14:56:02.313Z,4.78
2022-07-30T14:58:29.454Z,3.78
2022-07-30T15:00:56.573Z,5.60
2022-07-30T15:03:23.379Z,2.58
2022-07-30T15:05:55.863Z,3.38
2022-07-30T15:08:22.597Z,2.75
2022-07-30T15:10:49.368Z,5.10
2022-07-30T15:13:16.689Z,4.57
2022-07-30T15:15:45.896Z,3.35
2022-07-30T15:18:13.557Z,2.83
2022-07-30T15:20:40.552Z,2.55
2022-07-30T15:23:10.508Z,3.80
2022-07-30T15:25:41.204Z,2.42
2022-07-30T15:28:08.175Z,3.97
2022-07-30T15:30:35.018Z,4.30
2022-07-30T15:33:02.033Z,3.55
2022-07-30T15:35:28.768Z,2.90
2022-07-30T15:37:55.537Z,3.28
2022-07-30T15:40:22.263Z,4.50
2022-07-30T15:42:49.241Z,3.10
2022-07-30T15:45:18.044Z,2.17
2022-07-30T15:47:45.303Z,3.10
2022-07-30T15:50:12.517Z,3.95
2022-07-30T15:52:39.521Z,3.70
2022-07-30T15:55:07.467Z,2.63
2022-07-30T15:57:34.361Z,2.88
2022-07-30T16:00:01.769Z,3.30
2022-07-30T16:02:39.505Z,3.30
2022-07-30T16:05:11.782Z,1.55
2022-07-30T16:07:41.004Z,3.35
2022-07-30T16:10:08.380Z,3.65
2022-07-30T16:12:35.466Z,4.57
2022-07-30T16:15:02.347Z,3.63
2022-07-30T16:17:29.367Z,2.05
2022-07-30T16:19:56.200Z,2.00
2022-07-30T16:22:23.922Z,2.13
2022-07-30T16:24:51.161Z,3.30
2022-07-30T16:27:19.175Z,2.63
2022-07-30T16:29:46.329Z,1.30
2022-07-30T16:32:13.060Z,2.30
2022-07-30T16:34:39.839Z,3.42
2022-07-30T16:37:06.608Z,4.32
2022-07-30T16:39:33.351Z,2.75
2022-07-30T16:42:00.437Z,1.73
2022-07-30T16:44:31.515Z,2.40
2022-07-30T16:46:58.532Z,3.17
2022-07-30T16:49:25.518Z,2.10
2022-07-30T16:51:52.549Z,2.42
2022-07-30T16:54:19.505Z,2.10
2022-07-30T16:56:46.652Z,3.03
2022-07-30T16:59:14.474Z,2.65
2022-07-30T17:01:41.363Z,2.78
2022-07-30T17:04:08.378Z,2.83
2022-07-30T17:06:36.399Z,2.58
2022-07-30T17:09:03.479Z,4.20
2022-07-30T17:11:47.349Z,3.08
2022-07-30T17:14:19.614Z,2.53
2022-07-30T17:16:46.485Z,6.68
2022-07-30T17:19:13.403Z,2.90
2022-07-30T17:21:40.348Z,1.98
2022-07-30T17:24:11.762Z,3.65
2022-07-30T17:26:43.475Z,3.58
2022-07-30T17:29:16.364Z,2.83
2022-07-30T17:31:44.575Z,2.15
2022-07-30T17:34:13.799Z,3.40
2022-07-30T17:36:44.253Z,2.25
2022-07-30T17:40:01.480Z,4.28
2022-07-30T17:42:07.147Z,2.35
2022-07-30T17:44:35.391Z,3.10
2022-07-30T17:47:02.223Z,2.20
2022-07-30T17:49:30.373Z,4.15
2022-07-30T17:51:57.563Z,5.78
2022-07-30T17:54:24.538Z,3.50
2022-07-30T17:56:51.521Z,2.78
2022-07-30T17:59:18.422Z,3.63
2022-07-30T18:01:45.308Z,2.92
2022-07-30T18:04:12.194Z,3.75
2022-07-30T18:06:38.964Z,5.25
2022-07-30T18:09:06.368Z,2.47
2022-07-30T18:11:33.271Z,3.90
2022-07-30T18:14:00.084Z,3.63
2022-07-30T18:16:26.949Z,3.30
2022-07-30T18:18:53.803Z,3.28
2022-07-30T18:21:20.758Z,3.78
2022-07-30T18:23:47.569Z,3.13
2022-07-30T18:26:15.353Z,4.13
2022-07-30T18:28:42.296Z,3.67
2022-07-30T18:31:09.126Z,3.47
2022-07-30T18:33:36.121Z,2.88
2022-07-30T18:36:03.067Z,3.28
2022-07-30T18:38:29.890Z,4.43
2022-07-30T18:40:59.801Z,2.10
2022-07-30T18:43:27.973Z,3.72
2022-07-30T18:45:55.540Z,3.33
2022-07-30T18:48:23.035Z,4.53
2022-07-30T18:50:50.396Z,5.00
2022-07-30T18:53:17.181Z,5.78
2022-07-30T18:55:44.649Z,4.32
2022-07-30T18:58:12.016Z,4.57
2022-07-30T19:00:42.728Z,8.90
2022-07-30T19:03:17.451Z,2.50
2022-07-30T19:05:46.408Z,5.15
2022-07-30T19:08:13.113Z,4.43
2022-07-30T19:10:43.742Z,3.13
2022-07-30T19:13:10.744Z,3.35
2022-07-30T19:15:37.699Z,4.55
2022-07-30T19:18:05.198Z,2.85
2022-07-30T19:20:32.079Z,5.47
2022-07-30T19:23:04.093Z,4.93
2022-07-30T19:25:33.123Z,3.45
2022-07-30T19:28:01.423Z,4.20
2022-07-30T19:30:29.765Z,8.98
2022-07-30T19:33:03.485Z,4.07
2022-07-30T19:35:30.393Z,3.83
2022-07-30T19:37:57.197Z,3.20
2022-07-30T19:40:24.095Z,3.20
2022-07-30T19:42:55.921Z,3.97
2022-07-30T19:45:23.660Z,4.18
2022-07-30T19:47:50.706Z,3.45
2022-07-30T19:50:17.562Z,4.25
2022-07-30T19:52:50.997Z,3.05
2022-07-30T19:55:35.309Z,3.75
2022-07-30T19:58:04.638Z,3.22
2022-07-30T20:00:49.472Z,3.95
2022-07-30T20:03:19.062Z,5.28
2022-07-30T20:05:57.456Z,3.42
2022-07-30T20:08:40.014Z,3.03
2022-07-30T20:11:08.268Z,3.55
2022-07-30T20:13:44.898Z,3.28
2022-07-30T20:16:15.481Z,3.10
2022-07-30T20:18:44.525Z,3.10
2022-07-30T20:21:15.387Z,4.22
2022-07-30T20:23:44.620Z,3.95
2022-07-30T20:26:14.237Z,3.17
2022-07-30T20:28:43.809Z,3.13
2022-07-30T20:31:13.066Z,3.67
2022-07-30T20:33:40.462Z,3.33
2022-07-30T20:36:09.965Z,4.43
2022-07-30T20:38:38.993Z,3.53
2022-07-30T20:41:10.097Z,3.80
2022-07-30T20:43:52.254Z,3.80
2022-07-30T20:46:23.098Z,3.47
2022-07-30T20:48:52.012Z,3.78
2022-07-30T20:51:18.979Z,3.53
2022-07-30T20:53:46.249Z,3.90
2022-07-30T20:56:13.853Z,3.38
2022-07-30T20:58:46.074Z,5.13
2022-07-30T21:01:15.723Z,4.10
2022-07-30T21:03:47.857Z,6.22
2022-07-30T21:06:17.934Z,6.15
2022-07-30T21:08:44.715Z,5.15
2022-07-30T21:11:12.641Z,4.00
2022-07-30T21:13:39.732Z,3.88
2022-07-30T21:16:15.603Z,4.32
2022-07-30T21:18:49.710Z,3.38
2022-07-30T21:21:30.634Z,5.47
2022-07-30T21:24:05.444Z,3.53
2022-07-30T21:26:32.570Z,6.10
2022-07-30T21:29:00.760Z,7.45
2022-07-30T21:31:57.922Z,4.75
2022-07-30T21:34:15.192Z,4.97
2022-07-30T21:36:43.300Z,4.88
2022-07-30T21:39:10.256Z,2.85
2022-07-30T21:41:41.099Z,6.25
2022-07-30T21:44:09.913Z,4.15
2022-07-30T21:46:38.002Z,5.30
2022-07-30T21:49:07.310Z,4.55
2022-07-30T21:51:35.170Z,3.53
2022-07-30T21:54:07.165Z,4.20
2022-07-30T21:56:34.584Z,4.38
2022-07-30T21:59:08.442Z,3.90
2022-07-30T22:01:38.614Z,4.05
2022-07-30T22:04:07.951Z,5.60
2022-07-30T22:06:38.045Z,3.83
2022-07-30T22:09:26.402Z,3.78
2022-07-30T22:11:54.857Z,3.85
2022-07-30T22:14:22.388Z,4.70
2022-07-30T22:16:49.523Z,4.63
2022-07-30T22:19:17.220Z,3.88
2022-07-30T22:21:46.937Z,4.05
2022-07-30T22:24:28.803Z,3.77
2022-07-30T22:27:10.794Z,3.55
2022-07-30T22:29:43.078Z,3.90
2022-07-30T22:32:12.253Z,4.93
2022-07-30T22:34:39.383Z,3.75
2022-07-30T22:37:12.478Z,3.20
2022-07-30T22:39:50.488Z,4.28
2022-07-30T22:42:19.998Z,3.13
2022-07-30T22:44:47.327Z,4.75
2022-07-30T22:47:21.229Z,4.38
2022-07-30T22:50:03.985Z,3.38
2022-07-30T22:52:38.019Z,4.15
2022-07-30T22:55:09.152Z,3.50
2022-07-30T22:57:40.280Z,3.25
2022-07-30T23:00:12.189Z,4.47
2022-07-30T23:05:29.693Z,4.72
2022-07-30T23:07:56.623Z,4.63
2022-07-30T23:10:25.662Z,3.75
2022-07-30T23:12:34.222Z,4.43
2022-07-30T23:12:54.490Z,4.43
2022-07-30T23:15:22.229Z,4.07
2022-07-30T23:17:49.019Z,3.90
2022-07-30T23:20:20.305Z,3.95
2022-07-30T23:22:48.195Z,4.65
2022-07-30T23:25:15.167Z,3.72
2022-07-30T23:27:42.526Z,4.22
2022-07-30T23:30:10.703Z,3.80
2022-07-30T23:32:38.051Z,4.45
2022-07-30T23:35:06.796Z,5.90
2022-07-30T23:37:37.922Z,3.53
2022-07-30T23:40:19.077Z,4.93
2022-07-30T23:42:47.345Z,4.38
2022-07-30T23:45:14.407Z,4.45
2022-07-30T23:48:00.501Z,3.88
2022-07-30T23:50:28.213Z,5.13
2022-07-30T23:52:55.726Z,4.43
2022-07-30T23:55:22.629Z,3.70
2022-07-30T23:57:49.459Z,4.28
